LFLS/GNB METAR and TAF weather

Enter ICAO airport designator
Station Type Date Time Source
LFLS METAR 2020/09/18 06:00 UTC NOAA

LFLS 180600Z AUTO 10006KT CAVOK 15/13 Q1018 NOSIG


Station Type Date Time Source
LFLS Decoded METAR 2020/09/18 06:00 UTC NOAA

Grenoble / St. Geoirs, France (LFLS) 45-22N 005-20E 386M
Sep 18, 2020 - 02:00 AM EDT / 2020.09.18 0600 UTC
Wind: from the E (100 degrees) at 7 MPH (6 KT):0
Visibility: greater than 7 mile(s):0
Temperature: 59 F (15 C)
Dew Point: 55 F (13 C)
Relative Humidity: 87%
Pressure (altimeter): 30.06 in. Hg (1018 hPa)
ob: LFLS 180600Z AUTO 10006KT CAVOK 15/13 Q1018 NOSIG
cycle: 6

Station Type Date Time Source
LFLS TAF 2020/09/18 03:26 UTC NOAA

TAF LFLS 180200Z 1803/1903 08008KT CAVOK
BECMG 1810/1812 18008KT PROB40
TEMPO 1900/1903 SHRA BKN090TCU

Example: see airport list